createdAt,value
2018-01-23T00:00:00.060Z,977.63
2018-01-23T00:00:59.977Z,977.66
2018-01-23T00:01:59.890Z,977.66
2018-01-23T00:02:59.844Z,977.74
2018-01-23T00:03:59.717Z,977.75
2018-01-23T00:04:59.637Z,977.75
2018-01-23T00:05:59.589Z,977.75
2018-01-23T00:06:59.473Z,977.76
2018-01-23T00:07:59.392Z,977.81
2018-01-23T00:08:59.365Z,977.86
2018-01-23T00:09:59.241Z,977.92
2018-01-23T00:10:59.203Z,977.95
2018-01-23T00:11:59.058Z,977.99
2018-01-23T00:12:59.025Z,978.03
2018-01-23T00:13:58.891Z,978.00
2018-01-23T00:14:58.796Z,978.01
2018-01-23T00:15:58.728Z,978.04
2018-01-23T00:16:58.630Z,978.07
2018-01-23T00:17:58.576Z,978.20
2018-01-23T00:18:58.493Z,978.20
2018-01-23T00:19:58.439Z,978.18
2018-01-23T00:20:58.298Z,978.22
2018-01-23T00:21:58.249Z,978.27
2018-01-23T00:22:58.127Z,978.27
2018-01-23T00:23:58.052Z,978.28
2018-01-23T00:24:57.960Z,978.31
2018-01-23T00:25:57.943Z,978.30
2018-01-23T00:26:57.798Z,978.31
2018-01-23T00:27:57.755Z,978.32
2018-01-23T00:28:57.672Z,978.29
2018-01-23T00:29:57.604Z,978.26
2018-01-23T00:30:57.495Z,978.26
2018-01-23T00:31:57.380Z,978.26
2018-01-23T00:32:57.304Z,978.29
2018-01-23T00:33:57.218Z,978.33
2018-01-23T00:34:57.126Z,978.35
2018-01-23T00:35:57.042Z,978.36
2018-01-23T00:36:57.024Z,978.39
2018-01-23T00:37:56.877Z,978.37
2018-01-23T00:38:56.819Z,978.32
2018-01-23T00:39:56.743Z,978.31
2018-01-23T00:40:56.649Z,978.33
2018-01-23T00:41:56.557Z,978.37
2018-01-23T00:42:56.480Z,978.39
2018-01-23T00:43:56.386Z,978.40
2018-01-23T00:44:56.293Z,978.40
2018-01-23T00:45:56.222Z,978.41
2018-01-23T00:46:56.124Z,978.38
2018-01-23T00:47:56.040Z,978.38
2018-01-23T00:48:55.961Z,978.43
2018-01-23T00:49:55.867Z,978.45
2018-01-23T00:50:55.804Z,978.47
2018-01-23T00:51:55.762Z,978.48
2018-01-23T00:52:55.643Z,978.50
2018-01-23T00:53:55.592Z,978.50
2018-01-23T00:54:55.456Z,978.55
2018-01-23T00:55:55.385Z,978.55
2018-01-23T00:56:55.304Z,978.57
2018-01-23T00:57:55.199Z,978.59
2018-01-23T00:58:55.134Z,978.60
2018-01-23T00:59:55.035Z,978.56
2018-01-23T01:00:54.953Z,978.58
2018-01-23T01:01:54.865Z,978.56
2018-01-23T01:02:54.837Z,978.56
2018-01-23T01:03:54.699Z,978.60
2018-01-23T01:04:54.615Z,978.59
2018-01-23T01:05:54.530Z,978.63
2018-01-23T01:06:54.445Z,978.62
2018-01-23T01:07:54.370Z,978.70
2018-01-23T01:08:54.283Z,978.69
2018-01-23T01:09:54.197Z,978.68
2018-01-23T01:10:54.119Z,978.73
2018-01-23T01:11:54.030Z,978.75
2018-01-23T01:12:54.001Z,978.78
2018-01-23T01:13:53.897Z,978.79
2018-01-23T01:14:53.790Z,978.82
2018-01-23T01:15:53.694Z,978.82
2018-01-23T01:16:53.614Z,978.85
2018-01-23T01:17:53.552Z,978.90
2018-01-23T01:18:53.480Z,978.85
2018-01-23T01:19:53.394Z,978.85
2018-01-23T01:20:53.274Z,978.89
2018-01-23T01:21:53.194Z,978.88
2018-01-23T01:22:53.108Z,978.92
2018-01-23T01:23:53.077Z,978.95
2018-01-23T01:24:52.942Z,978.91
2018-01-23T01:25:52.858Z,978.95
2018-01-23T01:26:52.773Z,979.00
2018-01-23T01:27:52.694Z,979.03
2018-01-23T01:28:52.643Z,979.07
2018-01-23T01:29:52.579Z,979.13
2018-01-23T01:30:52.470Z,979.10
2018-01-23T01:31:52.385Z,979.18
2018-01-23T01:32:52.268Z,979.16
2018-01-23T01:33:52.219Z,979.16
2018-01-23T01:34:52.127Z,979.22
2018-01-23T01:35:52.021Z,979.26
2018-01-23T01:36:51.940Z,979.30
2018-01-23T01:37:51.905Z,979.32
2018-01-23T01:38:51.765Z,979.32
2018-01-23T01:39:51.727Z,979.34
2018-01-23T01:40:51.616Z,979.36
2018-01-23T01:41:51.535Z,979.39
2018-01-23T01:42:51.496Z,979.42
2018-01-23T01:43:51.419Z,979.42
2018-01-23T01:44:51.267Z,979.50
2018-01-23T01:45:51.209Z,979.55
2018-01-23T01:46:51.108Z,979.57
2018-01-23T01:47:51.034Z,979.56
2018-01-23T01:48:50.935Z,979.60
2018-01-23T01:49:50.846Z,979.59
2018-01-23T01:50:50.798Z,979.63
2018-01-23T01:51:50.697Z,979.63
2018-01-23T01:52:50.607Z,979.63
2018-01-23T01:53:50.513Z,979.65
2018-01-23T01:54:50.456Z,979.65
2018-01-23T01:55:50.350Z,979.67
2018-01-23T01:56:50.259Z,979.68
2018-01-23T01:57:50.183Z,979.73
2018-01-23T01:58:50.158Z,979.76
2018-01-23T01:59:50.018Z,979.72
2018-01-23T02:00:49.926Z,979.70
2018-01-23T02:01:49.847Z,979.70
2018-01-23T02:02:49.767Z,979.76
2018-01-23T02:03:49.674Z,979.75
2018-01-23T02:04:49.596Z,979.74
2018-01-23T02:05:49.509Z,979.78
2018-01-23T02:06:49.424Z,979.74
2018-01-23T02:07:49.358Z,979.72
2018-01-23T02:08:49.262Z,979.69
2018-01-23T02:09:49.176Z,979.68
2018-01-23T02:10:49.090Z,979.71
2018-01-23T02:11:49.022Z,979.66
2018-01-23T02:12:48.918Z,979.65
2018-01-23T02:13:48.837Z,979.63
2018-01-23T02:14:48.800Z,979.64
2018-01-23T02:15:48.707Z,979.68
2018-01-23T02:16:48.610Z,979.70
2018-01-23T02:17:48.581Z,979.72
2018-01-23T02:18:48.446Z,979.72
2018-01-23T02:19:48.376Z,979.77
2018-01-23T02:20:48.292Z,979.78
2018-01-23T02:21:48.195Z,979.76
2018-01-23T02:22:48.124Z,979.77
2018-01-23T02:23:48.004Z,979.75
2018-01-23T02:24:47.925Z,979.73
2018-01-23T02:25:47.854Z,979.75
2018-01-23T02:26:47.782Z,979.81
2018-01-23T02:27:47.667Z,979.91
2018-01-23T02:28:47.599Z,979.94
2018-01-23T02:29:47.534Z,979.96
2018-01-23T02:30:47.419Z,979.97
2018-01-23T02:31:47.337Z,979.96
2018-01-23T02:32:47.248Z,980.01
2018-01-23T02:33:47.206Z,980.05
2018-01-23T02:34:47.081Z,980.02
2018-01-23T02:35:47.045Z,980.04
2018-01-23T02:36:46.910Z,979.99
2018-01-23T02:37:46.885Z,980.00
2018-01-23T02:38:46.743Z,979.99
2018-01-23T02:39:46.673Z,980.04
2018-01-23T02:40:46.577Z,980.02
2018-01-23T02:41:46.503Z,980.07
2018-01-23T02:42:46.414Z,980.05
2018-01-23T02:43:46.334Z,980.08
2018-01-23T02:44:46.245Z,980.10
2018-01-23T02:45:46.235Z,980.06
2018-01-23T02:46:46.080Z,980.06
2018-01-23T02:47:46.008Z,980.06
2018-01-23T02:48:45.919Z,980.05
2018-01-23T02:49:45.865Z,980.10
2018-01-23T02:50:45.769Z,980.08
2018-01-23T02:51:45.658Z,980.14
2018-01-23T02:52:45.588Z,980.12
2018-01-23T02:53:45.540Z,980.15
2018-01-23T02:54:45.456Z,980.13
2018-01-23T02:55:45.329Z,980.16
2018-01-23T02:56:45.243Z,980.17
2018-01-23T02:57:45.221Z,980.22
2018-01-23T02:58:45.081Z,980.27
2018-01-23T02:59:44.999Z,980.23
2018-01-23T03:00:44.906Z,980.28
2018-01-23T03:01:44.840Z,980.30
2018-01-23T03:02:44.735Z,980.32
2018-01-23T03:03:44.662Z,980.31
2018-01-23T03:04:44.621Z,980.33
2018-01-23T03:05:44.514Z,980.39
2018-01-23T03:06:44.403Z,980.38
2018-01-23T03:07:44.343Z,980.36
2018-01-23T03:08:44.238Z,980.35
2018-01-23T03:09:44.166Z,980.39
2018-01-23T03:10:44.074Z,980.42
2018-01-23T03:11:43.988Z,980.51
2018-01-23T03:12:43.903Z,980.52
2018-01-23T03:13:43.821Z,980.52
2018-01-23T03:14:43.733Z,980.51
2018-01-23T03:15:43.686Z,980.56
2018-01-23T03:16:43.605Z,980.58
2018-01-23T03:17:43.523Z,980.56
2018-01-23T03:18:43.395Z,980.55
2018-01-23T03:19:43.348Z,980.60
2018-01-23T03:20:43.302Z,980.61
2018-01-23T03:21:43.165Z,980.63
2018-01-23T03:22:43.074Z,980.63
2018-01-23T03:23:43.002Z,980.64
2018-01-23T03:24:42.906Z,980.68
2018-01-23T03:25:42.835Z,980.63
2018-01-23T03:26:42.726Z,980.64
2018-01-23T03:27:42.651Z,980.64
2018-01-23T03:28:42.578Z,980.65
2018-01-23T03:29:42.476Z,980.69
2018-01-23T03:30:42.400Z,980.66
2018-01-23T03:31:42.316Z,980.67
2018-01-23T03:32:42.260Z,980.68
2018-01-23T03:33:42.174Z,980.68
2018-01-23T03:34:42.066Z,980.64
2018-01-23T03:35:41.980Z,980.65
2018-01-23T03:36:41.896Z,980.65
2018-01-23T03:37:41.806Z,980.63
2018-01-23T03:38:41.788Z,980.63
2018-01-23T03:39:41.640Z,980.64
2018-01-23T03:40:41.562Z,980.62
2018-01-23T03:41:41.499Z,980.59
2018-01-23T03:42:41.449Z,980.62
2018-01-23T03:43:41.314Z,980.61
2018-01-23T03:44:41.228Z,980.61
2018-01-23T03:45:41.155Z,980.61
2018-01-23T03:46:41.104Z,980.57
2018-01-23T03:47:40.996Z,980.59
2018-01-23T03:48:40.922Z,980.57
2018-01-23T03:49:40.830Z,980.61
2018-01-23T03:50:40.723Z,980.63
2018-01-23T03:51:40.638Z,980.64
2018-01-23T03:52:40.556Z,980.66
2018-01-23T03:53:40.500Z,980.64
2018-01-23T03:54:40.405Z,980.66
2018-01-23T03:55:40.307Z,980.63
2018-01-23T03:56:40.234Z,980.63
2018-01-23T03:57:40.148Z,980.70
2018-01-23T03:58:40.053Z,980.69
2018-01-23T03:59:40.001Z,980.68
2018-01-23T04:00:39.885Z,980.67
2018-01-23T04:01:39.831Z,980.67
2018-01-23T04:02:39.725Z,980.69
2018-01-23T04:03:39.633Z,980.74
2018-01-23T04:04:39.552Z,980.77
2018-01-23T04:05:39.481Z,980.78
2018-01-23T04:06:39.385Z,980.79
2018-01-23T04:07:39.299Z,980.76
2018-01-23T04:08:39.242Z,980.74
2018-01-23T04:09:39.154Z,980.78
2018-01-23T04:10:39.080Z,980.77
2018-01-23T04:11:38.990Z,980.78
2018-01-23T04:12:38.883Z,980.81
2018-01-23T04:13:38.807Z,980.82
2018-01-23T04:14:38.758Z,980.81
2018-01-23T04:15:38.637Z,980.80
2018-01-23T04:16:38.551Z,980.80
2018-01-23T04:17:38.502Z,980.81
2018-01-23T04:18:38.403Z,980.81
2018-01-23T04:19:38.293Z,980.83
2018-01-23T04:20:38.216Z,980.86
2018-01-23T04:21:38.170Z,980.83
2018-01-23T04:22:38.057Z,980.85
2018-01-23T04:23:38.000Z,980.88
2018-01-23T04:24:37.877Z,980.86
2018-01-23T04:25:37.836Z,980.85
2018-01-23T04:26:37.777Z,980.86
2018-01-23T04:27:37.665Z,980.91
2018-01-23T04:28:37.548Z,980.93
2018-01-23T04:29:37.472Z,980.99
2018-01-23T04:30:37.409Z,980.94
2018-01-23T04:31:37.347Z,980.95
2018-01-23T04:32:37.209Z,980.95
2018-01-23T04:33:37.128Z,980.96
2018-01-23T04:34:37.053Z,981.01
2018-01-23T04:35:36.960Z,981.07
2018-01-23T04:36:36.903Z,981.10
2018-01-23T04:37:36.796Z,981.09
2018-01-23T04:38:36.709Z,981.12
2018-01-23T04:39:36.630Z,981.13
2018-01-23T04:40:36.544Z,981.14
2018-01-23T04:41:36.530Z,981.17
2018-01-23T04:42:36.382Z,981.21
2018-01-23T04:43:36.293Z,981.20
2018-01-23T04:44:36.206Z,981.21
2018-01-23T04:45:36.160Z,981.22
2018-01-23T04:46:36.071Z,981.22
2018-01-23T04:47:36.015Z,981.21
2018-01-23T04:48:35.883Z,981.23
2018-01-23T04:49:35.788Z,981.22
2018-01-23T04:50:35.730Z,981.22
2018-01-23T04:51:35.677Z,981.24
2018-01-23T04:52:36.008Z,981.20
2018-01-23T04:53:35.518Z,981.21
2018-01-23T04:54:35.418Z,981.21
2018-01-23T04:55:35.309Z,981.25
2018-01-23T04:56:35.207Z,981.22
2018-01-23T04:57:35.127Z,981.27
2018-01-23T04:58:35.051Z,981.26
2018-01-23T04:59:34.962Z,981.30
2018-01-23T05:00:34.893Z,981.29
2018-01-23T05:01:34.788Z,981.26
2018-01-23T05:02:34.703Z,981.27
2018-01-23T05:03:34.649Z,981.27
2018-01-23T05:04:34.565Z,981.30
2018-01-23T05:05:34.473Z,981.30
2018-01-23T05:06:34.384Z,981.32
2018-01-23T05:07:34.296Z,981.34
2018-01-23T05:08:34.198Z,981.34
2018-01-23T05:09:34.141Z,981.39
2018-01-23T05:10:34.043Z,981.43
2018-01-23T05:11:33.964Z,981.41
2018-01-23T05:12:33.870Z,981.46
2018-01-23T05:13:33.787Z,981.45
2018-01-23T05:14:33.769Z,981.48
2018-01-23T05:15:33.616Z,981.50
2018-01-23T05:16:33.568Z,981.53
2018-01-23T05:17:33.507Z,981.50
2018-01-23T05:18:33.417Z,981.54
2018-01-23T05:19:33.283Z,981.57
2018-01-23T05:20:33.227Z,981.60
2018-01-23T05:21:33.115Z,981.68
2018-01-23T05:22:33.073Z,981.65
2018-01-23T05:23:32.972Z,981.67
2018-01-23T05:24:32.879Z,981.67
2018-01-23T05:25:32.784Z,981.71
2018-01-23T05:26:32.708Z,981.74
2018-01-23T05:27:32.615Z,981.75
2018-01-23T05:28:32.530Z,981.79
2018-01-23T05:29:32.453Z,981.81
2018-01-23T05:30:32.360Z,981.81
2018-01-23T05:31:32.287Z,981.80
2018-01-23T05:32:32.213Z,981.79
2018-01-23T05:33:32.164Z,981.85
2018-01-23T05:34:32.028Z,981.83
2018-01-23T05:35:31.987Z,981.84
2018-01-23T05:36:31.865Z,981.87
2018-01-23T05:37:31.807Z,981.89
2018-01-23T05:38:31.728Z,981.92
2018-01-23T05:39:31.611Z,981.89
2018-01-23T05:40:31.545Z,981.92
2018-01-23T05:41:31.448Z,981.94
2018-01-23T05:42:31.359Z,981.91
2018-01-23T05:43:31.273Z,981.96
2018-01-23T05:44:31.189Z,981.98
2018-01-23T05:45:31.116Z,981.97
2018-01-23T05:46:31.023Z,981.97
2018-01-23T05:47:31.023Z,982.00
2018-01-23T05:48:30.861Z,982.00
2018-01-23T05:49:30.804Z,982.01
2018-01-23T05:50:30.750Z,982.07
2018-01-23T05:51:30.607Z,982.06
2018-01-23T05:52:30.531Z,982.07
2018-01-23T05:53:30.450Z,982.09
2018-01-23T05:54:30.377Z,982.08
2018-01-23T05:55:30.276Z,982.10
2018-01-23T05:56:30.204Z,982.10
2018-01-23T05:57:30.130Z,982.17
2018-01-23T05:58:30.024Z,982.14
2018-01-23T05:59:29.973Z,982.14
2018-01-23T06:00:29.863Z,982.22
2018-01-23T06:01:29.775Z,982.20
2018-01-23T06:02:29.699Z,982.20
2018-01-23T06:03:29.604Z,982.18
2018-01-23T06:04:29.522Z,982.18
2018-01-23T06:05:29.438Z,982.19
2018-01-23T06:06:29.412Z,982.21
2018-01-23T06:07:29.270Z,982.25
2018-01-23T06:08:29.243Z,982.29
2018-01-23T06:09:29.136Z,982.31
2018-01-23T06:10:29.071Z,982.33
2018-01-23T06:11:28.992Z,982.35
2018-01-23T06:12:28.852Z,982.34
2018-01-23T06:13:28.819Z,982.36
2018-01-23T06:14:28.764Z,982.36
2018-01-23T06:15:28.639Z,982.40
2018-01-23T06:16:28.552Z,982.41
2018-01-23T06:17:28.534Z,982.42
2018-01-23T06:18:28.408Z,982.45
2018-01-23T06:19:28.274Z,982.52
2018-01-23T06:20:28.242Z,982.54
2018-01-23T06:21:28.102Z,982.55
2018-01-23T06:22:28.045Z,982.60
2018-01-23T06:23:27.941Z,982.58
2018-01-23T06:24:27.868Z,982.58
2018-01-23T06:25:27.775Z,982.57
2018-01-23T06:26:27.701Z,982.59
2018-01-23T06:27:27.629Z,982.56
2018-01-23T06:28:27.576Z,982.58
2018-01-23T06:29:27.472Z,982.61
2018-01-23T06:30:27.364Z,982.61
2018-01-23T06:31:27.334Z,982.60
2018-01-23T06:32:27.186Z,982.64
2018-01-23T06:33:27.112Z,982.64
2018-01-23T06:34:27.014Z,982.66
2018-01-23T06:35:26.937Z,982.66
2018-01-23T06:36:26.847Z,982.67
2018-01-23T06:37:26.791Z,982.70
2018-01-23T06:38:26.692Z,982.70
2018-01-23T06:39:26.668Z,982.70
2018-01-23T06:40:26.525Z,982.69
2018-01-23T06:41:26.452Z,982.67
2018-01-23T06:42:26.411Z,982.70
2018-01-23T06:43:26.296Z,982.72
2018-01-23T06:44:26.209Z,982.72
2018-01-23T06:45:26.099Z,982.71
2018-01-23T06:46:26.014Z,982.78
2018-01-23T06:47:25.970Z,982.78
2018-01-23T06:48:25.850Z,982.83
2018-01-23T06:49:25.822Z,982.80
2018-01-23T06:50:25.718Z,982.81
2018-01-23T06:51:25.615Z,982.80
2018-01-23T06:52:25.518Z,982.78
2018-01-23T06:53:25.453Z,982.84
2018-01-23T06:54:25.366Z,982.84
2018-01-23T06:55:25.260Z,982.85
2018-01-23T06:56:25.177Z,982.88
2018-01-23T06:57:25.110Z,982.90
2018-01-23T06:58:25.010Z,982.96
2018-01-23T06:59:24.963Z,982.94
2018-01-23T07:00:24.851Z,982.99
2018-01-23T07:01:24.792Z,983.00
2018-01-23T07:02:24.714Z,982.98
2018-01-23T07:03:24.601Z,983.04
2018-01-23T07:04:24.511Z,983.04
2018-01-23T07:05:24.425Z,983.09
2018-01-23T07:06:24.347Z,983.09
2018-01-23T07:07:24.269Z,983.15
2018-01-23T07:08:24.240Z,983.14
2018-01-23T07:09:24.096Z,983.22
2018-01-23T07:10:24.011Z,983.19
2018-01-23T07:11:23.939Z,983.26
2018-01-23T07:12:23.843Z,983.25
2018-01-23T07:13:23.788Z,983.28
2018-01-23T07:14:23.689Z,983.29
2018-01-23T07:15:23.639Z,983.33
2018-01-23T07:16:23.511Z,983.37
2018-01-23T07:17:23.428Z,983.38
2018-01-23T07:18:23.342Z,983.41
2018-01-23T07:19:23.318Z,983.50
2018-01-23T07:20:23.176Z,983.46
2018-01-23T07:21:23.121Z,983.46
2018-01-23T07:22:23.057Z,983.48
2018-01-23T07:23:22.931Z,983.49
2018-01-23T07:24:22.867Z,983.50
2018-01-23T07:25:22.756Z,983.51
2018-01-23T07:26:22.680Z,983.51
2018-01-23T07:27:22.626Z,983.54
2018-01-23T07:28:22.505Z,983.59
2018-01-23T07:29:22.419Z,983.60
2018-01-23T07:30:22.400Z,983.61
2018-01-23T07:31:22.334Z,983.66
2018-01-23T07:32:22.174Z,983.68
2018-01-23T07:33:22.098Z,983.74
2018-01-23T07:34:22.020Z,983.78
2018-01-23T07:35:21.923Z,983.79
2018-01-23T07:36:21.839Z,983.83
2018-01-23T07:37:21.755Z,983.80
2018-01-23T07:38:21.691Z,983.80
2018-01-23T07:39:21.584Z,983.81
2018-01-23T07:40:21.509Z,983.83
2018-01-23T07:41:21.422Z,983.85
2018-01-23T07:42:21.337Z,983.90
2018-01-23T07:43:21.250Z,983.90
2018-01-23T07:44:21.222Z,983.92
2018-01-23T07:45:21.092Z,983.89
2018-01-23T07:46:21.033Z,983.97
2018-01-23T07:47:20.921Z,983.94
2018-01-23T07:48:20.885Z,983.95
2018-01-23T07:49:20.787Z,983.99
2018-01-23T07:50:20.725Z,983.98
2018-01-23T07:51:20.585Z,983.96
2018-01-23T07:52:20.550Z,983.97
2018-01-23T07:53:20.425Z,983.96
2018-01-23T07:54:20.335Z,984.00
2018-01-23T07:55:21.862Z,984.04
2018-01-23T07:56:20.167Z,984.03
2018-01-23T07:57:20.083Z,984.05
2018-01-23T07:58:20.018Z,984.06
2018-01-23T07:59:19.933Z,984.08
2018-01-23T08:00:19.907Z,984.09
2018-01-23T08:01:19.777Z,984.14
2018-01-23T08:02:19.685Z,984.13
2018-01-23T08:03:19.620Z,984.15
2018-01-23T08:04:19.508Z,984.14
2018-01-23T08:05:19.417Z,984.16
2018-01-23T08:06:19.341Z,984.18
2018-01-23T08:07:19.323Z,984.18
2018-01-23T08:08:19.203Z,984.20
2018-01-23T08:09:19.106Z,984.17
2018-01-23T08:10:19.001Z,984.20
2018-01-23T08:11:18.969Z,984.22
2018-01-23T08:12:18.833Z,984.19
2018-01-23T08:13:18.761Z,984.20
2018-01-23T08:14:18.671Z,984.18
2018-01-23T08:15:18.601Z,984.17
2018-01-23T08:16:18.538Z,984.15
2018-01-23T08:17:18.448Z,984.21
2018-01-23T08:18:18.340Z,984.22
2018-01-23T08:19:18.254Z,984.25
2018-01-23T08:20:18.164Z,984.25
2018-01-23T08:21:18.089Z,984.29
2018-01-23T08:22:18.058Z,984.32
2018-01-23T08:23:17.938Z,984.33
2018-01-23T08:24:17.837Z,984.34
2018-01-23T08:25:17.812Z,984.35
2018-01-23T08:26:17.702Z,984.35
2018-01-23T08:27:17.593Z,984.34
2018-01-23T08:28:17.509Z,984.35
2018-01-23T08:29:17.411Z,984.44
2018-01-23T08:30:17.330Z,984.45
2018-01-23T08:31:17.265Z,984.50
2018-01-23T08:32:17.222Z,984.52
2018-01-23T08:33:17.082Z,984.54
2018-01-23T08:34:17.059Z,984.58
2018-01-23T08:35:16.926Z,984.57
2018-01-23T08:36:16.841Z,984.59
2018-01-23T08:37:16.765Z,984.61
2018-01-23T08:38:16.669Z,984.61
2018-01-23T08:39:16.582Z,984.61
2018-01-23T08:40:16.537Z,984.64
2018-01-23T08:41:16.414Z,984.63
2018-01-23T08:42:16.347Z,984.64
2018-01-23T08:43:16.256Z,984.62
2018-01-23T08:44:16.167Z,984.66
2018-01-23T08:45:16.113Z,984.66
2018-01-23T08:46:15.995Z,984.65
2018-01-23T08:47:15.913Z,984.62
2018-01-23T08:48:15.832Z,984.71
2018-01-23T08:49:15.791Z,984.75
2018-01-23T08:50:15.696Z,984.73
2018-01-23T08:51:15.627Z,984.78
2018-01-23T08:52:15.529Z,984.79
2018-01-23T08:53:15.416Z,984.80
2018-01-23T08:54:15.332Z,984.83
2018-01-23T08:55:15.287Z,984.78
2018-01-23T08:56:15.175Z,984.82
2018-01-23T08:57:15.111Z,984.82
2018-01-23T08:58:15.001Z,984.79
2018-01-23T08:59:14.963Z,984.80
2018-01-23T09:00:14.859Z,984.79
2018-01-23T09:01:14.793Z,984.83
2018-01-23T09:02:14.668Z,984.82
2018-01-23T09:03:14.583Z,984.82
2018-01-23T09:04:14.500Z,984.84
2018-01-23T09:05:14.418Z,984.84
2018-01-23T09:06:14.368Z,984.84
2018-01-23T09:07:14.285Z,984.92
2018-01-23T09:08:14.174Z,984.91
2018-01-23T09:09:14.133Z,984.94
2018-01-23T09:10:14.022Z,984.94
2018-01-23T09:11:13.945Z,984.93
2018-01-23T09:12:13.837Z,985.01
2018-01-23T09:13:13.751Z,985.03
2018-01-23T09:14:13.670Z,985.01
2018-01-23T09:15:13.581Z,985.10
2018-01-23T09:16:13.553Z,985.11
2018-01-23T09:17:13.430Z,985.13
2018-01-23T09:18:13.368Z,985.16
2018-01-23T09:19:13.266Z,985.18
2018-01-23T09:20:13.190Z,985.17
2018-01-23T09:21:13.112Z,985.19
2018-01-23T09:22:13.031Z,985.18
2018-01-23T09:23:12.987Z,985.19
2018-01-23T09:24:12.842Z,985.22
2018-01-23T09:25:12.810Z,985.21
2018-01-23T09:26:12.696Z,985.25
2018-01-23T09:27:12.585Z,985.24
2018-01-23T09:28:12.510Z,985.27
2018-01-23T09:29:12.425Z,985.24
2018-01-23T09:30:12.335Z,985.25
2018-01-23T09:31:12.262Z,985.22
2018-01-23T09:32:12.164Z,985.25
2018-01-23T09:33:12.089Z,985.23
2018-01-23T09:34:12.002Z,985.27
2018-01-23T09:35:11.959Z,985.26
2018-01-23T09:36:11.861Z,985.24
2018-01-23T09:37:11.757Z,985.28
2018-01-23T09:38:11.674Z,985.29
2018-01-23T09:39:11.593Z,985.28
2018-01-23T09:40:11.532Z,985.31
2018-01-23T09:41:11.457Z,985.35
2018-01-23T09:42:11.358Z,985.37
2018-01-23T09:43:11.320Z,985.38
2018-01-23T09:44:11.171Z,985.41
2018-01-23T09:45:11.098Z,985.42
2018-01-23T09:46:11.008Z,985.43
2018-01-23T09:47:10.924Z,985.45
2018-01-23T09:48:10.872Z,985.46
2018-01-23T09:49:10.811Z,985.48
2018-01-23T09:50:10.691Z,985.48
2018-01-23T09:51:10.628Z,985.49
2018-01-23T09:52:10.508Z,985.52
2018-01-23T09:53:10.467Z,985.54
2018-01-23T09:54:10.374Z,985.55
2018-01-23T09:55:10.285Z,985.55
2018-01-23T09:56:10.205Z,985.59
2018-01-23T09:57:10.093Z,985.59
2018-01-23T09:58:10.009Z,985.58
2018-01-23T09:59:09.924Z,985.57
2018-01-23T10:00:09.886Z,985.62
2018-01-23T10:01:09.759Z,985.59
2018-01-23T10:02:09.675Z,985.58
2018-01-23T10:03:09.627Z,985.58
2018-01-23T10:04:09.507Z,985.66
2018-01-23T10:05:09.461Z,985.63
2018-01-23T10:06:09.370Z,985.63
2018-01-23T10:07:09.260Z,985.66
2018-01-23T10:08:09.200Z,985.64
2018-01-23T10:09:09.116Z,985.68
2018-01-23T10:10:09.008Z,985.70
2018-01-23T10:11:08.950Z,985.69
2018-01-23T10:12:08.853Z,985.67
2018-01-23T10:13:08.861Z,985.68
2018-01-23T10:14:08.699Z,985.69
2018-01-23T10:15:08.594Z,985.62
2018-01-23T10:16:08.552Z,985.64
2018-01-23T10:17:08.431Z,985.66
2018-01-23T10:18:08.352Z,985.64
2018-01-23T10:19:08.283Z,985.62
2018-01-23T10:20:08.195Z,985.63
2018-01-23T10:21:08.097Z,985.65
2018-01-23T10:22:08.072Z,985.64
2018-01-23T10:23:07.995Z,985.66
2018-01-23T10:24:07.848Z,985.68
2018-01-23T10:25:07.776Z,985.65
2018-01-23T10:26:07.686Z,985.65
2018-01-23T10:27:07.647Z,985.69
2018-01-23T10:28:07.550Z,985.67
2018-01-23T10:29:07.469Z,985.68
2018-01-23T10:30:07.389Z,985.66
2018-01-23T10:31:07.268Z,985.68
2018-01-23T10:32:07.197Z,985.67
2018-01-23T10:33:07.118Z,985.72
2018-01-23T10:34:07.079Z,985.70
2018-01-23T10:35:06.983Z,985.69
2018-01-23T10:36:06.855Z,985.69
2018-01-23T10:37:06.776Z,985.66
2018-01-23T10:38:06.715Z,985.71
2018-01-23T10:39:06.614Z,985.68
2018-01-23T10:40:06.592Z,985.68
2018-01-23T10:41:06.444Z,985.70
2018-01-23T10:42:06.385Z,985.72
2018-01-23T10:43:06.287Z,985.69
2018-01-23T10:44:06.198Z,985.70
2018-01-23T10:45:06.152Z,985.75
2018-01-23T10:46:06.058Z,985.80
2018-01-23T10:47:05.976Z,985.76
2018-01-23T10:48:05.868Z,985.77
2018-01-23T10:49:05.846Z,985.82
2018-01-23T10:50:05.703Z,985.79
2018-01-23T10:51:05.625Z,985.85
2018-01-23T10:52:05.543Z,985.89
2018-01-23T10:53:05.458Z,985.84
2018-01-23T10:54:05.380Z,985.85
2018-01-23T10:55:05.304Z,985.90
2018-01-23T10:56:05.245Z,985.85
2018-01-23T10:57:05.144Z,985.84
2018-01-23T10:58:05.035Z,985.89
2018-01-23T10:59:05.019Z,985.89
2018-01-23T11:00:05.053Z,985.85
2018-01-23T11:01:04.792Z,985.90
2018-01-23T11:02:04.716Z,985.90
2018-01-23T11:03:04.658Z,985.90
2018-01-23T11:04:04.554Z,985.89
2018-01-23T11:05:04.457Z,985.89
2018-01-23T11:06:04.391Z,985.93
2018-01-23T11:07:04.301Z,985.94
2018-01-23T11:08:04.248Z,985.98
2018-01-23T11:09:04.150Z,985.93
2018-01-23T11:10:04.047Z,985.99
2018-01-23T11:11:03.976Z,985.95
2018-01-23T11:12:03.928Z,985.94
2018-01-23T11:13:03.805Z,985.96
2018-01-23T11:14:03.719Z,985.95
2018-01-23T11:15:03.668Z,985.98
2018-01-23T11:16:03.574Z,985.94
2018-01-23T11:17:03.509Z,985.97
2018-01-23T11:18:03.465Z,985.97
2018-01-23T11:19:03.308Z,985.96
2018-01-23T11:20:03.283Z,985.94
2018-01-23T11:21:03.198Z,985.93
2018-01-23T11:22:03.057Z,985.94
2018-01-23T11:23:02.993Z,985.93
2018-01-23T11:24:02.937Z,985.95
2018-01-23T11:25:02.837Z,986.02
2018-01-23T11:26:02.746Z,986.02
2018-01-23T11:27:02.676Z,985.98
2018-01-23T11:28:02.571Z,985.98
2018-01-23T11:29:02.500Z,986.01
2018-01-23T11:30:02.429Z,986.01
2018-01-23T11:31:02.320Z,986.02
2018-01-23T11:32:02.305Z,986.01
2018-01-23T11:33:02.220Z,986.03
2018-01-23T11:34:02.084Z,985.98
2018-01-23T11:35:01.990Z,985.99
2018-01-23T11:36:01.949Z,985.97
2018-01-23T11:37:01.899Z,985.94
2018-01-23T11:38:01.783Z,985.94
2018-01-23T11:39:01.670Z,986.00
2018-01-23T11:40:01.577Z,985.93
2018-01-23T11:41:01.528Z,985.95
2018-01-23T11:42:01.471Z,985.97
2018-01-23T11:43:01.337Z,985.98
2018-01-23T11:44:01.286Z,985.99
2018-01-23T11:45:01.201Z,985.98
2018-01-23T11:46:01.146Z,986.04
2018-01-23T11:47:01.002Z,986.03
2018-01-23T11:48:00.963Z,986.08
2018-01-23T11:49:00.894Z,986.08
2018-01-23T11:50:00.810Z,986.03
2018-01-23T11:51:00.675Z,986.05
2018-01-23T11:52:00.655Z,986.03
2018-01-23T11:53:00.506Z,986.03
2018-01-23T11:54:00.481Z,985.97
2018-01-23T11:55:00.347Z,985.97
2018-01-23T11:56:00.263Z,985.96
2018-01-23T11:57:00.219Z,985.93
2018-01-23T11:58:00.099Z,985.87
2018-01-23T11:59:00.022Z,985.84
2018-01-23T11:59:59.934Z,985.87
2018-01-23T12:00:59.894Z,985.90
2018-01-23T12:01:59.809Z,985.89
2018-01-23T12:02:59.781Z,985.90
2018-01-23T12:03:59.607Z,985.93
2018-01-23T12:04:59.520Z,985.94
2018-01-23T12:05:59.472Z,985.90
2018-01-23T12:06:59.378Z,985.91
2018-01-23T12:07:59.278Z,985.85
2018-01-23T12:08:59.199Z,985.85
2018-01-23T12:09:59.151Z,985.83
2018-01-23T12:10:59.054Z,985.85
2018-01-23T12:11:58.979Z,985.84
2018-01-23T12:12:58.906Z,985.89
2018-01-23T12:13:58.786Z,985.79
2018-01-23T12:14:58.732Z,985.81
2018-01-23T12:15:58.641Z,985.79
2018-01-23T12:16:58.635Z,985.83
2018-01-23T12:17:58.459Z,985.78
2018-01-23T12:18:58.398Z,985.77
2018-01-23T12:19:58.297Z,985.80
2018-01-23T12:20:58.208Z,985.75
2018-01-23T12:21:58.184Z,985.75
2018-01-23T12:22:58.069Z,985.73
2018-01-23T12:23:57.966Z,985.74
2018-01-23T12:24:57.926Z,985.71
2018-01-23T12:25:57.864Z,985.75
2018-01-23T12:26:57.719Z,985.73